sensor_id;sensor_type;location;lat;lon;timestamp;P1;durP1;ratioP1;P2;durP2;ratioP2
60026;SDS011;45891;53.006;6.512;2023-05-20T00:01:40;15.18;;;5.97;;
60026;SDS011;45891;53.006;6.512;2023-05-20T00:04:07;15.23;;;5.82;;
60026;SDS011;45891;53.006;6.512;2023-05-20T00:06:33;19.23;;;6.22;;
60026;SDS011;45891;53.006;6.512;2023-05-20T00:08:59;16.15;;;6.13;;
60026;SDS011;45891;53.006;6.512;2023-05-20T00:11:25;15.60;;;5.63;;
60026;SDS011;45891;53.006;6.512;2023-05-20T00:13:51;22.52;;;6.07;;
60026;SDS011;45891;53.006;6.512;2023-05-20T00:16:17;16.27;;;6.60;;
60026;SDS011;45891;53.006;6.512;2023-05-20T00:18:43;19.35;;;6.43;;
60026;SDS011;45891;53.006;6.512;2023-05-20T00:21:09;23.42;;;6.65;;
60026;SDS011;45891;53.006;6.512;2023-05-20T00:23:35;17.92;;;6.70;;
60026;SDS011;45891;53.006;6.512;2023-05-20T00:26:03;21.25;;;6.70;;
60026;SDS011;45891;53.006;6.512;2023-05-20T00:28:29;18.05;;;6.40;;
60026;SDS011;45891;53.006;6.512;2023-05-20T00:30:55;13.93;;;5.90;;
60026;SDS011;45891;53.006;6.512;2023-05-20T00:33:21;16.83;;;7.05;;
60026;SDS011;45891;53.006;6.512;2023-05-20T00:35:47;16.80;;;6.75;;
60026;SDS011;45891;53.006;6.512;2023-05-20T00:38:13;17.23;;;6.83;;
60026;SDS011;45891;53.006;6.512;2023-05-20T00:40:39;17.73;;;7.13;;
60026;SDS011;45891;53.006;6.512;2023-05-20T00:43:05;17.98;;;7.13;;
60026;SDS011;45891;53.006;6.512;2023-05-20T00:45:31;16.98;;;6.47;;
60026;SDS011;45891;53.006;6.512;2023-05-20T00:47:57;19.98;;;6.68;;
60026;SDS011;45891;53.006;6.512;2023-05-20T00:50:26;16.88;;;6.45;;
60026;SDS011;45891;53.006;6.512;2023-05-20T00:52:52;17.83;;;7.20;;
60026;SDS011;45891;53.006;6.512;2023-05-20T00:55:20;20.05;;;7.40;;
60026;SDS011;45891;53.006;6.512;2023-05-20T00:57:47;18.63;;;7.28;;
60026;SDS011;45891;53.006;6.512;2023-05-20T01:00:14;15.55;;;6.15;;
60026;SDS011;45891;53.006;6.512;2023-05-20T01:02:40;15.88;;;7.13;;
60026;SDS011;45891;53.006;6.512;2023-05-20T01:05:06;21.88;;;6.97;;
60026;SDS011;45891;53.006;6.512;2023-05-20T01:07:32;18.13;;;6.93;;
60026;SDS011;45891;53.006;6.512;2023-05-20T01:09:59;22.23;;;7.18;;
60026;SDS011;45891;53.006;6.512;2023-05-20T01:12:26;17.27;;;7.88;;
60026;SDS011;45891;53.006;6.512;2023-05-20T01:15:13;15.55;;;7.43;;
60026;SDS011;45891;53.006;6.512;2023-05-20T01:17:46;17.90;;;7.78;;
60026;SDS011;45891;53.006;6.512;2023-05-20T01:20:17;19.10;;;6.55;;
60026;SDS011;45891;53.006;6.512;2023-05-20T01:22:48;17.60;;;7.47;;
60026;SDS011;45891;53.006;6.512;2023-05-20T01:25:19;16.85;;;7.10;;
60026;SDS011;45891;53.006;6.512;2023-05-20T01:27:46;20.50;;;7.20;;
60026;SDS011;45891;53.006;6.512;2023-05-20T01:30:13;17.70;;;7.28;;
60026;SDS011;45891;53.006;6.512;2023-05-20T01:32:41;16.27;;;6.93;;
60026;SDS011;45891;53.006;6.512;2023-05-20T01:35:10;15.65;;;7.45;;
60026;SDS011;45891;53.006;6.512;2023-05-20T01:37:37;19.35;;;7.60;;
60026;SDS011;45891;53.006;6.512;2023-05-20T01:40:08;17.40;;;6.78;;
60026;SDS011;45891;53.006;6.512;2023-05-20T01:42:36;13.80;;;6.47;;
60026;SDS011;45891;53.006;6.512;2023-05-20T01:45:04;17.15;;;6.60;;
60026;SDS011;45891;53.006;6.512;2023-05-20T01:47:31;17.70;;;6.70;;
60026;SDS011;45891;53.006;6.512;2023-05-20T01:49:57;16.35;;;6.97;;
60026;SDS011;45891;53.006;6.512;2023-05-20T01:52:23;21.85;;;7.07;;
60026;SDS011;45891;53.006;6.512;2023-05-20T01:54:49;16.00;;;7.68;;
60026;SDS011;45891;53.006;6.512;2023-05-20T01:57:19;19.60;;;7.43;;
60026;SDS011;45891;53.006;6.512;2023-05-20T01:59:46;13.23;;;6.53;;
60026;SDS011;45891;53.006;6.512;2023-05-20T02:02:12;20.25;;;7.63;;
60026;SDS011;45891;53.006;6.512;2023-05-20T02:04:39;18.10;;;7.57;;
60026;SDS011;45891;53.006;6.512;2023-05-20T02:07:08;19.70;;;7.97;;
60026;SDS011;45891;53.006;6.512;2023-05-20T02:09:34;20.65;;;7.80;;
60026;SDS011;45891;53.006;6.512;2023-05-20T02:12:00;20.17;;;7.50;;
60026;SDS011;45891;53.006;6.512;2023-05-20T02:14:26;16.42;;;7.18;;
60026;SDS011;45891;53.006;6.512;2023-05-20T02:16:52;21.45;;;7.47;;
60026;SDS011;45891;53.006;6.512;2023-05-20T02:19:18;15.93;;;6.55;;
60026;SDS011;45891;53.006;6.512;2023-05-20T02:21:48;16.38;;;7.03;;
60026;SDS011;45891;53.006;6.512;2023-05-20T02:24:15;17.88;;;7.25;;
60026;SDS011;45891;53.006;6.512;2023-05-20T02:26:41;19.73;;;7.50;;
60026;SDS011;45891;53.006;6.512;2023-05-20T02:29:10;17.13;;;6.43;;
60026;SDS011;45891;53.006;6.512;2023-05-20T02:31:36;21.30;;;7.10;;
60026;SDS011;45891;53.006;6.512;2023-05-20T02:34:02;18.20;;;7.35;;
60026;SDS011;45891;53.006;6.512;2023-05-20T02:36:29;16.58;;;6.40;;
60026;SDS011;45891;53.006;6.512;2023-05-20T02:38:56;18.80;;;7.18;;
60026;SDS011;45891;53.006;6.512;2023-05-20T02:41:22;15.35;;;6.32;;
60026;SDS011;45891;53.006;6.512;2023-05-20T02:43:48;14.95;;;7.32;;
60026;SDS011;45891;53.006;6.512;2023-05-20T02:46:15;15.73;;;6.80;;
60026;SDS011;45891;53.006;6.512;2023-05-20T02:48:43;16.90;;;7.07;;
60026;SDS011;45891;53.006;6.512;2023-05-20T02:51:09;16.38;;;7.25;;
60026;SDS011;45891;53.006;6.512;2023-05-20T02:53:35;15.75;;;7.20;;
60026;SDS011;45891;53.006;6.512;2023-05-20T02:56:02;16.17;;;6.85;;
60026;SDS011;45891;53.006;6.512;2023-05-20T02:58:29;18.60;;;7.05;;
60026;SDS011;45891;53.006;6.512;2023-05-20T03:00:55;16.13;;;6.60;;
60026;SDS011;45891;53.006;6.512;2023-05-20T03:03:22;18.27;;;6.35;;
60026;SDS011;45891;53.006;6.512;2023-05-20T03:05:51;14.48;;;6.55;;
60026;SDS011;45891;53.006;6.512;2023-05-20T03:08:19;13.60;;;6.47;;
60026;SDS011;45891;53.006;6.512;2023-05-20T03:10:46;14.63;;;6.60;;
60026;SDS011;45891;53.006;6.512;2023-05-20T03:13:12;12.07;;;5.90;;
60026;SDS011;45891;53.006;6.512;2023-05-20T03:15:40;15.05;;;6.18;;
60026;SDS011;45891;53.006;6.512;2023-05-20T03:18:07;17.60;;;5.97;;
60026;SDS011;45891;53.006;6.512;2023-05-20T03:20:33;17.33;;;6.35;;
60026;SDS011;45891;53.006;6.512;2023-05-20T03:23:03;15.10;;;6.22;;
60026;SDS011;45891;53.006;6.512;2023-05-20T03:25:30;14.25;;;6.40;;
60026;SDS011;45891;53.006;6.512;2023-05-20T03:27:56;13.35;;;6.18;;
60026;SDS011;45891;53.006;6.512;2023-05-20T03:30:25;14.50;;;6.00;;
60026;SDS011;45891;53.006;6.512;2023-05-20T03:32:52;13.68;;;5.82;;
60026;SDS011;45891;53.006;6.512;2023-05-20T03:35:18;11.57;;;5.68;;
60026;SDS011;45891;53.006;6.512;2023-05-20T03:37:44;13.30;;;5.53;;
60026;SDS011;45891;53.006;6.512;2023-05-20T03:40:10;17.23;;;5.78;;
60026;SDS011;45891;53.006;6.512;2023-05-20T03:42:37;12.80;;;5.28;;
60026;SDS011;45891;53.006;6.512;2023-05-20T03:45:03;13.88;;;5.65;;
60026;SDS011;45891;53.006;6.512;2023-05-20T03:47:31;14.35;;;5.82;;
60026;SDS011;45891;53.006;6.512;2023-05-20T03:49:57;11.23;;;5.05;;
60026;SDS011;45891;53.006;6.512;2023-05-20T03:52:23;14.20;;;5.43;;
60026;SDS011;45891;53.006;6.512;2023-05-20T03:54:49;12.30;;;4.85;;
60026;SDS011;45891;53.006;6.512;2023-05-20T03:57:15;14.18;;;5.47;;
60026;SDS011;45891;53.006;6.512;2023-05-20T03:59:41;11.60;;;5.15;;
60026;SDS011;45891;53.006;6.512;2023-05-20T04:02:07;14.70;;;5.50;;
60026;SDS011;45891;53.006;6.512;2023-05-20T04:04:34;12.00;;;4.85;;
60026;SDS011;45891;53.006;6.512;2023-05-20T04:07:00;12.40;;;4.80;;
60026;SDS011;45891;53.006;6.512;2023-05-20T04:09:27;13.00;;;5.00;;
60026;SDS011;45891;53.006;6.512;2023-05-20T04:11:53;12.27;;;5.05;;
60026;SDS011;45891;53.006;6.512;2023-05-20T04:14:19;13.20;;;4.53;;
60026;SDS011;45891;53.006;6.512;2023-05-20T04:16:46;10.77;;;4.07;;
60026;SDS011;45891;53.006;6.512;2023-05-20T04:19:12;10.82;;;4.70;;
60026;SDS011;45891;53.006;6.512;2023-05-20T04:21:38;13.10;;;4.40;;
60026;SDS011;45891;53.006;6.512;2023-05-20T04:24:04;16.10;;;4.50;;
60026;SDS011;45891;53.006;6.512;2023-05-20T04:26:31;11.77;;;4.03;;
60026;SDS011;45891;53.006;6.512;2023-05-20T04:28:58;9.55;;;3.92;;
60026;SDS011;45891;53.006;6.512;2023-05-20T04:31:26;11.57;;;3.90;;
60026;SDS011;45891;53.006;6.512;2023-05-20T04:33:52;12.82;;;4.28;;
60026;SDS011;45891;53.006;6.512;2023-05-20T04:36:18;10.55;;;3.88;;
60026;SDS011;45891;53.006;6.512;2023-05-20T04:38:45;11.23;;;4.30;;
60026;SDS011;45891;53.006;6.512;2023-05-20T04:41:12;11.10;;;3.97;;
60026;SDS011;45891;53.006;6.512;2023-05-20T04:43:40;10.70;;;4.07;;
60026;SDS011;45891;53.006;6.512;2023-05-20T04:46:07;13.38;;;3.63;;
60026;SDS011;45891;53.006;6.512;2023-05-20T04:48:34;10.18;;;3.75;;
60026;SDS011;45891;53.006;6.512;2023-05-20T04:51:00;10.43;;;3.70;;
60026;SDS011;45891;53.006;6.512;2023-05-20T04:53:26;9.88;;;3.90;;
60026;SDS011;45891;53.006;6.512;2023-05-20T04:55:55;9.60;;;3.03;;
60026;SDS011;45891;53.006;6.512;2023-05-20T04:58:22;11.43;;;3.42;;
60026;SDS011;45891;53.006;6.512;2023-05-20T05:00:51;9.43;;;3.65;;
60026;SDS011;45891;53.006;6.512;2023-05-20T05:03:17;11.35;;;3.03;;
60026;SDS011;45891;53.006;6.512;2023-05-20T05:05:43;9.63;;;2.85;;
60026;SDS011;45891;53.006;6.512;2023-05-20T05:08:10;9.88;;;3.25;;
60026;SDS011;45891;53.006;6.512;2023-05-20T05:10:36;9.73;;;2.78;;
60026;SDS011;45891;53.006;6.512;2023-05-20T05:13:02;9.80;;;2.70;;
60026;SDS011;45891;53.006;6.512;2023-05-20T05:15:28;11.23;;;2.53;;
60026;SDS011;45891;53.006;6.512;2023-05-20T05:17:55;8.80;;;2.53;;
60026;SDS011;45891;53.006;6.512;2023-05-20T05:20:21;7.72;;;2.47;;
60026;SDS011;45891;53.006;6.512;2023-05-20T05:22:47;8.63;;;2.50;;
60026;SDS011;45891;53.006;6.512;2023-05-20T05:25:15;11.10;;;2.80;;
60026;SDS011;45891;53.006;6.512;2023-05-20T05:27:41;8.20;;;2.40;;
60026;SDS011;45891;53.006;6.512;2023-05-20T05:30:09;9.10;;;2.30;;
60026;SDS011;45891;53.006;6.512;2023-05-20T05:32:35;8.40;;;2.13;;
60026;SDS011;45891;53.006;6.512;2023-05-20T05:35:02;8.18;;;2.55;;
60026;SDS011;45891;53.006;6.512;2023-05-20T05:37:29;14.82;;;2.13;;
60026;SDS011;45891;53.006;6.512;2023-05-20T05:39:55;8.25;;;2.20;;
60026;SDS011;45891;53.006;6.512;2023-05-20T05:42:21;9.90;;;2.58;;
60026;SDS011;45891;53.006;6.512;2023-05-20T05:44:47;7.90;;;2.28;;
60026;SDS011;45891;53.006;6.512;2023-05-20T05:47:13;9.50;;;1.98;;
60026;SDS011;45891;53.006;6.512;2023-05-20T05:49:40;8.20;;;1.95;;
60026;SDS011;45891;53.006;6.512;2023-05-20T05:52:06;10.95;;;2.15;;
60026;SDS011;45891;53.006;6.512;2023-05-20T05:54:32;8.00;;;1.85;;
60026;SDS011;45891;53.006;6.512;2023-05-20T05:56:58;8.40;;;1.90;;
60026;SDS011;45891;53.006;6.512;2023-05-20T05:59:24;7.80;;;2.00;;
60026;SDS011;45891;53.006;6.512;2023-05-20T06:01:50;7.13;;;1.98;;
60026;SDS011;45891;53.006;6.512;2023-05-20T06:04:16;6.88;;;1.95;;
60026;SDS011;45891;53.006;6.512;2023-05-20T06:06:42;6.90;;;1.85;;
60026;SDS011;45891;53.006;6.512;2023-05-20T06:09:09;8.00;;;1.80;;
60026;SDS011;45891;53.006;6.512;2023-05-20T06:11:35;9.15;;;1.92;;
60026;SDS011;45891;53.006;6.512;2023-05-20T06:14:01;8.38;;;1.80;;
60026;SDS011;45891;53.006;6.512;2023-05-20T06:16:28;7.95;;;1.75;;
60026;SDS011;45891;53.006;6.512;2023-05-20T06:18:54;7.30;;;1.60;;
60026;SDS011;45891;53.006;6.512;2023-05-20T06:21:22;7.40;;;1.83;;
60026;SDS011;45891;53.006;6.512;2023-05-20T06:23:48;7.68;;;1.52;;
60026;SDS011;45891;53.006;6.512;2023-05-20T06:26:14;8.73;;;1.67;;
60026;SDS011;45891;53.006;6.512;2023-05-20T06:28:40;7.47;;;1.70;;
60026;SDS011;45891;53.006;6.512;2023-05-20T06:31:06;6.70;;;1.60;;
60026;SDS011;45891;53.006;6.512;2023-05-20T06:33:33;6.35;;;1.65;;
60026;SDS011;45891;53.006;6.512;2023-05-20T06:35:59;8.25;;;1.50;;
60026;SDS011;45891;53.006;6.512;2023-05-20T06:38:26;10.23;;;1.98;;
60026;SDS011;45891;53.006;6.512;2023-05-20T06:40:53;9.80;;;1.88;;
60026;SDS011;45891;53.006;6.512;2023-05-20T06:43:19;6.97;;;1.63;;
60026;SDS011;45891;53.006;6.512;2023-05-20T06:45:45;6.60;;;1.55;;
60026;SDS011;45891;53.006;6.512;2023-05-20T06:48:11;7.75;;;1.73;;
60026;SDS011;45891;53.006;6.512;2023-05-20T06:50:37;6.88;;;1.85;;
60026;SDS011;45891;53.006;6.512;2023-05-20T06:53:03;8.30;;;1.50;;
60026;SDS011;45891;53.006;6.512;2023-05-20T06:55:29;8.85;;;1.55;;
60026;SDS011;45891;53.006;6.512;2023-05-20T06:57:55;5.68;;;1.35;;
60026;SDS011;45891;53.006;6.512;2023-05-20T07:00:22;10.30;;;1.70;;
60026;SDS011;45891;53.006;6.512;2023-05-20T07:02:48;7.63;;;1.60;;
60026;SDS011;45891;53.006;6.512;2023-05-20T07:05:14;7.20;;;1.63;;
60026;SDS011;45891;53.006;6.512;2023-05-20T07:07:40;5.40;;;1.55;;
60026;SDS011;45891;53.006;6.512;2023-05-20T07:10:06;7.55;;;1.63;;
60026;SDS011;45891;53.006;6.512;2023-05-20T07:12:33;10.88;;;2.00;;
60026;SDS011;45891;53.006;6.512;2023-05-20T07:14:59;8.65;;;1.67;;
60026;SDS011;45891;53.006;6.512;2023-05-20T07:17:26;9.38;;;1.90;;
60026;SDS011;45891;53.006;6.512;2023-05-20T07:19:54;9.38;;;1.63;;
60026;SDS011;45891;53.006;6.512;2023-05-20T07:22:21;9.82;;;1.95;;
60026;SDS011;45891;53.006;6.512;2023-05-20T07:24:47;8.23;;;1.83;;
60026;SDS011;45891;53.006;6.512;2023-05-20T07:27:13;6.50;;;1.77;;
60026;SDS011;45891;53.006;6.512;2023-05-20T07:29:39;7.63;;;1.77;;
60026;SDS011;45891;53.006;6.512;2023-05-20T07:32:05;8.80;;;1.70;;
60026;SDS011;45891;53.006;6.512;2023-05-20T07:34:33;8.23;;;1.90;;
60026;SDS011;45891;53.006;6.512;2023-05-20T07:36:59;6.25;;;1.70;;
60026;SDS011;45891;53.006;6.512;2023-05-20T07:39:25;7.70;;;1.70;;
60026;SDS011;45891;53.006;6.512;2023-05-20T07:41:52;7.45;;;1.77;;
60026;SDS011;45891;53.006;6.512;2023-05-20T07:44:18;8.23;;;1.80;;
60026;SDS011;45891;53.006;6.512;2023-05-20T07:46:45;8.32;;;1.60;;
60026;SDS011;45891;53.006;6.512;2023-05-20T07:49:12;7.30;;;1.98;;
60026;SDS011;45891;53.006;6.512;2023-05-20T07:51:38;9.30;;;2.05;;
60026;SDS011;45891;53.006;6.512;2023-05-20T07:54:05;7.13;;;1.77;;
60026;SDS011;45891;53.006;6.512;2023-05-20T07:56:31;6.78;;;1.70;;
60026;SDS011;45891;53.006;6.512;2023-05-20T07:58:58;7.40;;;1.90;;
60026;SDS011;45891;53.006;6.512;2023-05-20T08:01:25;6.70;;;2.03;;
60026;SDS011;45891;53.006;6.512;2023-05-20T08:03:51;8.20;;;1.90;;
60026;SDS011;45891;53.006;6.512;2023-05-20T08:06:18;10.48;;;2.00;;
60026;SDS011;45891;53.006;6.512;2023-05-20T08:08:51;8.57;;;1.80;;
60026;SDS011;45891;53.006;6.512;2023-05-20T08:11:19;7.10;;;2.00;;
60026;SDS011;45891;53.006;6.512;2023-05-20T08:13:48;9.27;;;2.00;;
60026;SDS011;45891;53.006;6.512;2023-05-20T08:16:14;6.88;;;1.70;;
60026;SDS011;45891;53.006;6.512;2023-05-20T08:18:40;11.00;;;2.42;;
60026;SDS011;45891;53.006;6.512;2023-05-20T08:21:06;6.40;;;1.88;;
60026;SDS011;45891;53.006;6.512;2023-05-20T08:23:33;7.57;;;1.80;;
60026;SDS011;45891;53.006;6.512;2023-05-20T08:25:59;8.77;;;2.05;;
60026;SDS011;45891;53.006;6.512;2023-05-20T08:28:28;7.88;;;2.00;;
60026;SDS011;45891;53.006;6.512;2023-05-20T08:30:55;6.95;;;2.00;;
60026;SDS011;45891;53.006;6.512;2023-05-20T08:33:24;9.23;;;2.00;;
60026;SDS011;45891;53.006;6.512;2023-05-20T08:35:51;6.78;;;1.80;;
60026;SDS011;45891;53.006;6.512;2023-05-20T08:38:17;10.90;;;2.53;;
60026;SDS011;45891;53.006;6.512;2023-05-20T08:40:43;9.05;;;1.90;;
60026;SDS011;45891;53.006;6.512;2023-05-20T08:43:09;6.70;;;1.95;;
60026;SDS011;45891;53.006;6.512;2023-05-20T08:45:36;8.68;;;1.92;;
60026;SDS011;45891;53.006;6.512;2023-05-20T08:48:02;9.02;;;1.98;;
60026;SDS011;45891;53.006;6.512;2023-05-20T08:50:32;9.15;;;1.85;;
60026;SDS011;45891;53.006;6.512;2023-05-20T08:52:58;10.00;;;2.47;;
60026;SDS011;45891;53.006;6.512;2023-05-20T08:55:25;9.95;;;2.42;;
60026;SDS011;45891;53.006;6.512;2023-05-20T08:58:01;5.93;;;1.80;;
60026;SDS011;45891;53.006;6.512;2023-05-20T09:00:27;9.68;;;2.20;;
60026;SDS011;45891;53.006;6.512;2023-05-20T09:02:54;7.57;;;1.90;;
60026;SDS011;45891;53.006;6.512;2023-05-20T09:05:20;7.43;;;2.28;;
60026;SDS011;45891;53.006;6.512;2023-05-20T09:07:47;7.45;;;2.00;;
60026;SDS011;45891;53.006;6.512;2023-05-20T09:10:13;8.65;;;2.10;;
60026;SDS011;45891;53.006;6.512;2023-05-20T09:12:40;7.13;;;2.10;;
60026;SDS011;45891;53.006;6.512;2023-05-20T09:15:06;8.48;;;1.95;;
60026;SDS011;45891;53.006;6.512;2023-05-20T09:17:38;7.28;;;2.13;;
60026;SDS011;45891;53.006;6.512;2023-05-20T09:20:08;6.82;;;2.05;;
60026;SDS011;45891;53.006;6.512;2023-05-20T09:22:35;11.80;;;2.10;;
60026;SDS011;45891;53.006;6.512;2023-05-20T09:25:04;8.68;;;2.17;;
60026;SDS011;45891;53.006;6.512;2023-05-20T09:27:31;7.70;;;2.15;;
60026;SDS011;45891;53.006;6.512;2023-05-20T09:29:57;8.50;;;2.00;;
60026;SDS011;45891;53.006;6.512;2023-05-20T09:32:23;8.90;;;2.05;;
60026;SDS011;45891;53.006;6.512;2023-05-20T09:34:52;8.25;;;2.10;;
60026;SDS011;45891;53.006;6.512;2023-05-20T09:37:20;10.25;;;2.05;;
60026;SDS011;45891;53.006;6.512;2023-05-20T09:39:56;7.47;;;2.05;;
60026;SDS011;45891;53.006;6.512;2023-05-20T09:42:26;10.88;;;2.50;;
60026;SDS011;45891;53.006;6.512;2023-05-20T09:44:59;12.60;;;2.22;;
60026;SDS011;45891;53.006;6.512;2023-05-20T09:47:28;7.97;;;2.22;;
60026;SDS011;45891;53.006;6.512;2023-05-20T09:49:55;8.40;;;2.20;;
60026;SDS011;45891;53.006;6.512;2023-05-20T09:52:22;9.93;;;2.25;;
60026;SDS011;45891;53.006;6.512;2023-05-20T09:54:52;8.38;;;2.05;;
60026;SDS011;45891;53.006;6.512;2023-05-20T09:57:20;9.13;;;2.23;;
60026;SDS011;45891;53.006;6.512;2023-05-20T09:59:46;7.75;;;2.00;;
60026;SDS011;45891;53.006;6.512;2023-05-20T10:02:14;8.32;;;2.17;;
60026;SDS011;45891;53.006;6.512;2023-05-20T10:04:43;8.18;;;2.15;;
60026;SDS011;45891;53.006;6.512;2023-05-20T10:12:54;7.72;;;2.22;;
60026;SDS011;45891;53.006;6.512;2023-05-20T10:20:45;7.57;;;1.93;;
60026;SDS011;45891;53.006;6.512;2023-05-20T10:23:27;10.02;;;2.53;;
60026;SDS011;45891;53.006;6.512;2023-05-20T10:25:55;9.75;;;2.20;;
60026;SDS011;45891;53.006;6.512;2023-05-20T10:30:56;8.77;;;2.25;;
60026;SDS011;45891;53.006;6.512;2023-05-20T10:33:24;8.25;;;2.00;;
60026;SDS011;45891;53.006;6.512;2023-05-20T10:35:57;7.80;;;1.90;;
60026;SDS011;45891;53.006;6.512;2023-05-20T10:38:24;8.70;;;1.98;;
60026;SDS011;45891;53.006;6.512;2023-05-20T10:40:51;7.78;;;1.92;;
60026;SDS011;45891;53.006;6.512;2023-05-20T10:43:26;7.25;;;2.00;;
60026;SDS011;45891;53.006;6.512;2023-05-20T10:45:54;7.88;;;2.17;;
60026;SDS011;45891;53.006;6.512;2023-05-20T10:48:23;9.18;;;2.20;;
60026;SDS011;45891;53.006;6.512;2023-05-20T10:53:21;9.45;;;2.70;;
60026;SDS011;45891;53.006;6.512;2023-05-20T10:55:48;11.40;;;2.00;;
60026;SDS011;45891;53.006;6.512;2023-05-20T10:58:22;6.60;;;1.90;;
60026;SDS011;45891;53.006;6.512;2023-05-20T11:00:50;6.72;;;1.83;;
60026;SDS011;45891;53.006;6.512;2023-05-20T11:03:19;8.65;;;2.17;;
60026;SDS011;45891;53.006;6.512;2023-05-20T11:05:47;8.20;;;2.17;;
60026;SDS011;45891;53.006;6.512;2023-05-20T11:08:13;9.07;;;2.00;;
60026;SDS011;45891;53.006;6.512;2023-05-20T11:10:40;7.45;;;1.80;;
60026;SDS011;45891;53.006;6.512;2023-05-20T11:13:07;9.68;;;2.00;;
60026;SDS011;45891;53.006;6.512;2023-05-20T11:15:33;9.13;;;1.77;;
60026;SDS011;45891;53.006;6.512;2023-05-20T11:18:01;8.15;;;1.98;;
60026;SDS011;45891;53.006;6.512;2023-05-20T11:20:29;7.53;;;2.28;;
60026;SDS011;45891;53.006;6.512;2023-05-20T11:25:26;9.30;;;2.00;;
60026;SDS011;45891;53.006;6.512;2023-05-20T11:27:52;8.75;;;2.17;;
60026;SDS011;45891;53.006;6.512;2023-05-20T11:30:19;7.95;;;1.80;;
60026;SDS011;45891;53.006;6.512;2023-05-20T11:35:25;8.38;;;2.08;;
60026;SDS011;45891;53.006;6.512;2023-05-20T11:37:56;9.27;;;2.10;;
60026;SDS011;45891;53.006;6.512;2023-05-20T11:40:30;7.53;;;1.92;;
60026;SDS011;45891;53.006;6.512;2023-05-20T11:42:58;7.43;;;1.80;;
60026;SDS011;45891;53.006;6.512;2023-05-20T11:45:25;5.63;;;1.60;;
60026;SDS011;45891;53.006;6.512;2023-05-20T11:47:58;7.18;;;2.00;;
60026;SDS011;45891;53.006;6.512;2023-05-20T11:50:25;9.13;;;2.10;;
60026;SDS011;45891;53.006;6.512;2023-05-20T11:52:58;9.35;;;2.30;;
60026;SDS011;45891;53.006;6.512;2023-05-20T11:55:25;8.27;;;2.33;;
60026;SDS011;45891;53.006;6.512;2023-05-20T11:57:53;8.20;;;2.10;;
60026;SDS011;45891;53.006;6.512;2023-05-20T12:00:22;8.52;;;1.83;;
60026;SDS011;45891;53.006;6.512;2023-05-20T12:02:48;8.65;;;1.80;;
60026;SDS011;45891;53.006;6.512;2023-05-20T12:05:14;7.97;;;2.10;;
60026;SDS011;45891;53.006;6.512;2023-05-20T12:07:41;8.00;;;2.05;;
60026;SDS011;45891;53.006;6.512;2023-05-20T12:10:07;5.82;;;1.70;;
60026;SDS011;45891;53.006;6.512;2023-05-20T12:12:34;9.02;;;2.60;;
60026;SDS011;45891;53.006;6.512;2023-05-20T12:15:01;8.23;;;2.20;;
60026;SDS011;45891;53.006;6.512;2023-05-20T12:17:30;8.63;;;2.20;;
60026;SDS011;45891;53.006;6.512;2023-05-20T12:20:09;8.77;;;1.90;;
60026;SDS011;45891;53.006;6.512;2023-05-20T12:22:37;8.40;;;1.80;;
60026;SDS011;45891;53.006;6.512;2023-05-20T12:25:03;9.23;;;2.20;;
60026;SDS011;45891;53.006;6.512;2023-05-20T12:27:30;7.55;;;2.40;;
60026;SDS011;45891;53.006;6.512;2023-05-20T12:29:58;9.93;;;2.03;;
60026;SDS011;45891;53.006;6.512;2023-05-20T12:32:24;6.70;;;1.80;;
60026;SDS011;45891;53.006;6.512;2023-05-20T12:34:50;9.13;;;1.85;;
60026;SDS011;45891;53.006;6.512;2023-05-20T12:37:16;7.40;;;2.10;;
60026;SDS011;45891;53.006;6.512;2023-05-20T12:39:42;7.07;;;2.00;;
60026;SDS011;45891;53.006;6.512;2023-05-20T12:42:08;7.38;;;1.88;;
60026;SDS011;45891;53.006;6.512;2023-05-20T12:44:34;6.95;;;1.70;;
60026;SDS011;45891;53.006;6.512;2023-05-20T12:47:01;7.18;;;2.00;;
60026;SDS011;45891;53.006;6.512;2023-05-20T12:49:27;13.88;;;2.60;;
60026;SDS011;45891;53.006;6.512;2023-05-20T12:51:53;7.18;;;2.05;;
60026;SDS011;45891;53.006;6.512;2023-05-20T12:54:19;6.47;;;1.95;;
60026;SDS011;45891;53.006;6.512;2023-05-20T12:56:46;10.45;;;3.67;;
60026;SDS011;45891;53.006;6.512;2023-05-20T12:59:13;8.02;;;2.20;;
60026;SDS011;45891;53.006;6.512;2023-05-20T13:01:39;13.82;;;2.10;;
60026;SDS011;45891;53.006;6.512;2023-05-20T13:04:05;6.45;;;1.65;;
60026;SDS011;45891;53.006;6.512;2023-05-20T13:06:32;8.20;;;2.30;;
60026;SDS011;45891;53.006;6.512;2023-05-20T13:08:59;9.48;;;2.13;;
60026;SDS011;45891;53.006;6.512;2023-05-20T13:11:25;8.45;;;2.00;;
60026;SDS011;45891;53.006;6.512;2023-05-20T13:13:53;10.32;;;2.65;;
60026;SDS011;45891;53.006;6.512;2023-05-20T13:16:22;9.63;;;2.45;;
60026;SDS011;45891;53.006;6.512;2023-05-20T13:18:48;9.55;;;2.10;;
60026;SDS011;45891;53.006;6.512;2023-05-20T13:21:15;8.32;;;2.10;;
60026;SDS011;45891;53.006;6.512;2023-05-20T13:23:41;7.55;;;2.10;;
60026;SDS011;45891;53.006;6.512;2023-05-20T13:26:07;6.88;;;1.77;;
60026;SDS011;45891;53.006;6.512;2023-05-20T13:28:34;7.10;;;1.80;;
60026;SDS011;45891;53.006;6.512;2023-05-20T13:31:03;9.25;;;2.08;;
60026;SDS011;45891;53.006;6.512;2023-05-20T13:33:30;8.35;;;2.10;;
60026;SDS011;45891;53.006;6.512;2023-05-20T13:35:56;8.93;;;3.17;;
60026;SDS011;45891;53.006;6.512;2023-05-20T13:38:22;8.20;;;2.30;;
60026;SDS011;45891;53.006;6.512;2023-05-20T13:40:48;10.45;;;2.38;;
60026;SDS011;45891;53.006;6.512;2023-05-20T13:43:15;8.77;;;2.42;;
60026;SDS011;45891;53.006;6.512;2023-05-20T13:45:41;7.90;;;2.35;;
60026;SDS011;45891;53.006;6.512;2023-05-20T13:48:07;11.13;;;2.23;;
60026;SDS011;45891;53.006;6.512;2023-05-20T13:50:33;10.45;;;2.50;;
60026;SDS011;45891;53.006;6.512;2023-05-20T13:52:59;9.20;;;2.42;;
60026;SDS011;45891;53.006;6.512;2023-05-20T13:55:25;8.98;;;2.50;;
60026;SDS011;45891;53.006;6.512;2023-05-20T13:57:52;7.20;;;2.13;;
60026;SDS011;45891;53.006;6.512;2023-05-20T14:00:20;11.07;;;2.55;;
60026;SDS011;45891;53.006;6.512;2023-05-20T14:02:46;9.25;;;2.35;;
60026;SDS011;45891;53.006;6.512;2023-05-20T14:05:12;7.47;;;2.30;;
60026;SDS011;45891;53.006;6.512;2023-05-20T14:07:38;8.43;;;2.33;;
60026;SDS011;45891;53.006;6.512;2023-05-20T14:10:04;7.38;;;2.20;;
60026;SDS011;45891;53.006;6.512;2023-05-20T14:12:31;12.52;;;2.90;;
60026;SDS011;45891;53.006;6.512;2023-05-20T14:14:57;10.50;;;2.42;;
60026;SDS011;45891;53.006;6.512;2023-05-20T14:17:23;12.48;;;2.45;;
60026;SDS011;45891;53.006;6.512;2023-05-20T14:19:50;9.07;;;2.40;;
60026;SDS011;45891;53.006;6.512;2023-05-20T14:22:16;9.15;;;2.35;;
60026;SDS011;45891;53.006;6.512;2023-05-20T14:24:43;11.10;;;2.13;;
60026;SDS011;45891;53.006;6.512;2023-05-20T14:27:09;11.98;;;2.40;;
60026;SDS011;45891;53.006;6.512;2023-05-20T14:29:36;8.73;;;2.10;;
60026;SDS011;45891;53.006;6.512;2023-05-20T14:32:02;9.90;;;2.30;;
60026;SDS011;45891;53.006;6.512;2023-05-20T14:34:29;8.35;;;2.30;;
60026;SDS011;45891;53.006;6.512;2023-05-20T14:36:55;10.13;;;3.58;;
60026;SDS011;45891;53.006;6.512;2023-05-20T14:39:21;7.90;;;2.10;;
60026;SDS011;45891;53.006;6.512;2023-05-20T14:41:47;9.25;;;2.33;;
60026;SDS011;45891;53.006;6.512;2023-05-20T14:44:13;9.65;;;2.10;;
60026;SDS011;45891;53.006;6.512;2023-05-20T14:46:39;9.65;;;2.15;;
60026;SDS011;45891;53.006;6.512;2023-05-20T14:49:06;8.40;;;2.15;;
60026;SDS011;45891;53.006;6.512;2023-05-20T14:51:32;6.63;;;2.13;;
60026;SDS011;45891;53.006;6.512;2023-05-20T14:53:58;8.48;;;2.13;;
60026;SDS011;45891;53.006;6.512;2023-05-20T14:56:24;7.57;;;2.33;;
60026;SDS011;45891;53.006;6.512;2023-05-20T14:58:51;9.35;;;2.30;;
60026;SDS011;45891;53.006;6.512;2023-05-20T15:01:17;8.98;;;2.65;;
60026;SDS011;45891;53.006;6.512;2023-05-20T15:03:43;9.32;;;2.50;;